Time;durP1;ratioP1;P1;durP2;ratioP2;P2;SDS_P1;SDS_P2;PMS_P1;PMS_P2;Temp;Humidity;BMP_temperature;BMP_pressure;BME280_temperature;BME280_humidity;BME280_pressure;Samples;Min_cycle;Max_cycle;Signal;HPM_P1;HPM_P2
2021/04/23 00:01:55;;;;;;;11.02;9.93;;;31.00;94.10;;;;;;4994602;28;20239;-51
2021/04/23 00:04:25;;;;;;;10.18;9.38;;;31.10;94.30;;;;;;4996539;28;20646;-53
2021/04/23 00:06:56;;;;;;;10.23;9.43;;;31.10;94.20;;;;;;4998117;28;20219;-53
2021/04/23 00:09:29;;;;;;;11.43;10.40;;;31.20;94.30;;;;;;4998869;28;20235;-52
2021/04/23 00:12:02;;;;;;;11.32;10.23;;;31.20;94.20;;;;;;4999303;28;20287;-54
2021/04/23 00:14:34;;;;;;;10.68;9.77;;;31.30;94.20;;;;;;5000288;28;20295;-54
2021/04/23 00:17:04;;;;;;;10.48;9.57;;;31.30;94.10;;;;;;5000537;28;20291;-53
2021/04/23 00:19:35;;;;;;;12.25;11.13;;;31.40;94.10;;;;;;4998174;28;20211;-53
2021/04/23 00:22:05;;;;;;;11.35;10.35;;;31.40;94.00;;;;;;4997536;28;20216;-52
2021/04/23 00:24:37;;;;;;;9.65;8.93;;;31.50;94.00;;;;;;4996195;28;20235;-53
2021/04/23 00:27:08;;;;;;;10.63;9.82;;;31.60;93.80;;;;;;4996945;28;20242;-52
2021/04/23 00:29:38;;;;;;;10.20;9.38;;;31.60;93.80;;;;;;4997954;28;20683;-51
2021/04/23 00:32:09;;;;;;;10.30;9.40;;;31.70;93.60;;;;;;4997455;28;20266;-53
2021/04/23 00:34:39;;;;;;;10.63;9.73;;;31.70;93.80;;;;;;4998787;28;20668;-54
2021/04/23 00:37:10;;;;;;;9.88;9.18;;;31.70;93.30;;;;;;4998930;28;20243;-50
2021/04/23 00:39:41;;;;;;;9.40;8.50;;;31.90;93.30;;;;;;4998976;28;20224;-52
2021/04/23 00:42:12;;;;;;;9.68;8.73;;;31.90;93.10;;;;;;4998046;28;20213;-49
2021/04/23 00:44:42;;;;;;;9.80;9.00;;;32.00;93.10;;;;;;4998495;28;20204;-52
2021/04/23 00:47:13;;;;;;;9.95;9.10;;;32.00;92.90;;;;;;4999648;28;20219;-53
2021/04/23 00:49:43;;;;;;;9.68;8.85;;;32.10;92.80;;;;;;4998539;28;20323;-54
2021/04/23 00:52:13;;;;;;;9.82;8.93;;;32.20;92.50;;;;;;4998761;28;20215;-51
2021/04/23 00:54:45;;;;;;;9.40;8.68;;;32.30;92.20;;;;;;4999219;28;20200;-49
2021/04/23 00:57:15;;;;;;;10.15;8.40;;;32.30;92.10;;;;;;4998976;28;20200;-53
2021/04/23 00:59:45;;;;;;;9.23;8.52;;;32.40;91.80;;;;;;4999069;28;20243;-52
2021/04/23 01:02:16;;;;;;;9.05;8.32;;;32.40;91.70;;;;;;4990844;28;20232;-50
2021/04/23 01:04:46;;;;;;;8.63;8.02;;;32.50;91.60;;;;;;4999220;28;20208;-49
2021/04/23 01:07:17;;;;;;;8.65;7.85;;;32.50;91.60;;;;;;4999120;28;20219;-48
2021/04/23 01:09:48;;;;;;;9.00;8.02;;;32.60;91.50;;;;;;4997465;28;20251;-48
2021/04/23 01:12:19;;;;;;;8.23;7.53;;;32.70;91.30;;;;;;4997775;28;20203;-52
2021/04/23 01:14:50;;;;;;;8.70;7.90;;;32.70;90.80;;;;;;4999431;28;20200;-48
2021/04/23 01:17:20;;;;;;;9.30;8.50;;;32.70;90.40;;;;;;4998919;28;20201;-48
2021/04/23 01:19:50;;;;;;;9.38;8.60;;;32.70;90.00;;;;;;4999063;28;20735;-48
2021/04/23 01:22:21;;;;;;;8.02;7.32;;;32.70;89.60;;;;;;4999198;28;20259;-51
2021/04/23 01:24:52;;;;;;;8.57;7.65;;;32.80;89.70;;;;;;4997332;28;20200;-50
2021/04/23 01:27:22;;;;;;;9.48;8.60;;;32.80;89.50;;;;;;4999353;28;20208;-48
2021/04/23 01:29:52;;;;;;;8.40;7.63;;;32.80;88.90;;;;;;4998545;28;20204;-50
2021/04/23 01:32:23;;;;;;;7.75;7.15;;;32.90;89.40;;;;;;4997806;28;20236;-52
2021/04/23 01:34:53;;;;;;;9.20;8.30;;;32.90;89.50;;;;;;4997303;28;20208;-54
2021/04/23 01:37:25;;;;;;;8.63;7.80;;;32.90;89.30;;;;;;4998747;28;20675;-54
2021/04/23 01:39:56;;;;;;;9.18;8.38;;;33.00;89.10;;;;;;4998680;28;20196;-52
2021/04/23 01:42:27;;;;;;;8.82;8.02;;;33.10;89.10;;;;;;4998046;28;20196;-50
2021/04/23 01:44:58;;;;;;;9.00;8.10;;;33.10;88.10;;;;;;4998727;28;20204;-53
2021/04/23 01:47:28;;;;;;;9.05;8.25;;;33.10;87.60;;;;;;4992010;28;20215;-54
2021/04/23 01:49:58;;;;;;;8.88;8.02;;;33.10;87.60;;;;;;4998654;28;20294;-50
2021/04/23 01:52:30;;;;;;;9.18;8.40;;;33.20;87.70;;;;;;5000151;28;20204;-52
2021/04/23 01:55:00;;;;;;;9.18;8.38;;;33.20;86.70;;;;;;4999638;28;20276;-53
2021/04/23 01:57:30;;;;;;;9.80;8.98;;;33.20;86.40;;;;;;4998977;28;20692;-51
2021/04/23 02:00:00;;;;;;;9.82;8.93;;;33.30;86.00;;;;;;4999065;28;20200;-54
2021/04/23 02:02:33;;;;;;;9.43;8.52;;;33.30;86.60;;;;;;4997989;28;20322;-52
2021/04/23 02:05:04;;;;;;;8.90;7.90;;;33.30;86.00;;;;;;4998293;28;20242;-50
2021/04/23 02:07:36;;;;;;;9.35;8.55;;;33.40;86.40;;;;;;4997377;28;20208;-56
2021/04/23 02:10:11;;;;;;;10.63;9.73;;;33.40;85.80;;;;;;4998665;28;20260;-52
2021/04/23 02:12:41;;;;;;;10.10;9.07;;;33.40;85.50;;;;;;4998021;28;20262;-53
2021/04/23 02:15:14;;;;;;;9.18;8.43;;;33.50;85.50;;;;;;4996783;28;20287;-52
2021/04/23 02:17:44;;;;;;;9.23;8.32;;;33.50;85.50;;;;;;4996080;28;20232;-49
2021/04/23 02:20:18;;;;;;;9.35;8.50;;;33.50;85.40;;;;;;4990335;28;20215;-49
2021/04/23 02:22:50;;;;;;;9.98;9.07;;;33.60;85.20;;;;;;4997077;28;20259;-51
2021/04/23 02:25:20;;;;;;;8.50;7.80;;;33.60;84.70;;;;;;4995530;28;20246;-48
2021/04/23 02:27:50;;;;;;;8.38;7.68;;;33.70;84.10;;;;;;4996189;28;20208;-50
2021/04/23 02:30:23;;;;;;;9.35;8.48;;;33.70;83.90;;;;;;4995206;28;20228;-49
2021/04/23 02:32:54;;;;;;;12.38;8.55;;;33.80;81.70;;;;;;4996081;28;20558;-49
2021/04/23 02:35:24;;;;;;;8.23;7.53;;;33.80;81.10;;;;;;4995515;28;20949;-48
2021/04/23 02:37:56;;;;;;;8.15;7.20;;;33.80;80.80;;;;;;4995484;28;20204;-50
2021/04/23 02:40:27;;;;;;;7.43;6.70;;;33.80;81.10;;;;;;4993505;28;20268;-48
2021/04/23 02:43:00;;;;;;;8.13;7.43;;;33.80;80.80;;;;;;4995508;28;20216;-50
2021/04/23 02:45:32;;;;;;;10.05;7.63;;;33.80;80.70;;;;;;4995228;28;20583;-50
2021/04/23 02:48:02;;;;;;;8.55;7.75;;;34.00;81.40;;;;;;4995322;28;20231;-51
2021/04/23 02:50:33;;;;;;;8.07;7.38;;;34.00;81.50;;;;;;4995431;28;20208;-52
2021/04/23 02:53:05;;;;;;;8.38;7.55;;;34.00;81.00;;;;;;4989096;28;20235;-52
2021/04/23 02:55:36;;;;;;;8.70;7.88;;;34.10;80.80;;;;;;4995625;28;20240;-53
2021/04/23 02:58:07;;;;;;;8.40;7.47;;;34.10;80.20;;;;;;4994905;28;20288;-52
2021/04/23 03:00:38;;;;;;;7.60;7.00;;;34.10;80.40;;;;;;4995669;28;20264;-51
2021/04/23 03:03:09;;;;;;;7.80;7.15;;;34.20;81.00;;;;;;4995817;28;20266;-51
2021/04/23 03:05:40;;;;;;;7.05;6.35;;;34.30;80.20;;;;;;4996021;28;20204;-53
2021/04/23 03:08:13;;;;;;;7.68;7.00;;;34.30;80.00;;;;;;4994883;28;20212;-50
2021/04/23 03:10:45;;;;;;;8.15;7.45;;;34.30;80.20;;;;;;4995257;28;20201;-49
2021/04/23 03:13:17;;;;;;;6.65;6.05;;;34.40;79.70;;;;;;4995076;28;20578;-50
2021/04/23 03:15:48;;;;;;;7.25;6.55;;;34.50;79.70;;;;;;4996945;28;20227;-51
2021/04/23 03:18:19;;;;;;;6.72;6.13;;;34.50;79.60;;;;;;4996550;28;20197;-49
2021/04/23 03:20:49;;;;;;;8.48;7.70;;;34.60;80.20;;;;;;4996345;28;20664;-50
2021/04/23 03:23:21;;;;;;;7.70;7.05;;;34.70;78.30;;;;;;4997760;28;20902;-52
2021/04/23 03:25:51;;;;;;;7.93;7.28;;;34.70;77.90;;;;;;4992822;28;20266;-53
2021/04/23 03:28:22;;;;;;;7.90;7.05;;;34.80;77.30;;;;;;5001111;28;21106;-53
2021/04/23 03:30:52;;;;;;;7.72;6.95;;;34.90;77.30;;;;;;5000298;28;20196;-53
2021/04/23 03:33:22;;;;;;;8.15;7.35;;;34.90;77.00;;;;;;4999878;28;20242;-52
2021/04/23 03:35:53;;;;;;;7.28;6.68;;;35.00;77.00;;;;;;5000260;28;20307;-55
2021/04/23 03:38:25;;;;;;;7.68;7.07;;;35.10;76.00;;;;;;5000525;28;20236;-54
2021/04/23 03:40:55;;;;;;;7.63;6.78;;;35.10;75.80;;;;;;5000177;28;20216;-53
2021/04/23 03:43:26;;;;;;;8.07;7.35;;;35.10;75.70;;;;;;4999369;28;20259;-54
2021/04/23 03:45:57;;;;;;;7.78;7.18;;;35.20;75.60;;;;;;5000686;28;20679;-54
2021/04/23 03:48:27;;;;;;;7.22;6.63;;;35.20;75.40;;;;;;5000878;28;20393;-52
2021/04/23 03:50:57;;;;;;;7.25;6.55;;;35.30;76.40;;;;;;5001238;28;20239;-51
2021/04/23 03:53:29;;;;;;;7.63;6.93;;;35.40;76.20;;;;;;5000150;28;20216;-53
2021/04/23 03:56:00;;;;;;;7.63;6.90;;;35.40;75.30;;;;;;5000396;28;21302;-49
2021/04/23 03:58:31;;;;;;;7.32;6.65;;;35.50;75.00;;;;;;5000724;28;20275;-54
2021/04/23 04:01:02;;;;;;;10.10;7.47;;;35.60;74.80;;;;;;5000366;28;20224;-54
2021/04/23 04:03:33;;;;;;;8.35;7.65;;;35.60;74.60;;;;;;4999770;28;20266;-54
2021/04/23 04:06:03;;;;;;;7.13;6.43;;;35.60;73.80;;;;;;4999396;28;20205;-53
2021/04/23 04:08:35;;;;;;;7.32;6.63;;;35.70;74.70;;;;;;4998313;28;20219;-53
2021/04/23 04:11:06;;;;;;;8.23;7.53;;;35.70;74.90;;;;;;4999028;28;20228;-48
2021/04/23 04:13:37;;;;;;;7.82;7.13;;;35.80;74.00;;;;;;4999001;28;20206;-54
2021/04/23 04:16:07;;;;;;;10.43;7.65;;;35.80;73.70;;;;;;4997372;28;20208;-51
2021/04/23 04:18:39;;;;;;;8.15;7.45;;;35.90;72.90;;;;;;4997718;28;20204;-49
2021/04/23 04:21:09;;;;;;;8.10;7.45;;;35.80;72.20;;;;;;4990766;28;20311;-52
2021/04/23 04:23:41;;;;;;;7.97;7.07;;;35.90;71.70;;;;;;4999011;28;20207;-51
2021/04/23 04:26:12;;;;;;;7.78;6.60;;;35.90;71.80;;;;;;4999505;28;20242;-50
2021/04/23 04:28:42;;;;;;;7.82;7.22;;;35.90;72.00;;;;;;4998509;28;20275;-53
2021/04/23 04:31:13;;;;;;;7.97;7.28;;;36.00;71.60;;;;;;4998863;28;20640;-50
2021/04/23 04:33:51;;;;;;;8.02;7.28;;;35.90;72.00;;;;;;4997895;28;20204;-50
2021/04/23 04:36:21;;;;;;;8.18;7.38;;;36.00;72.00;;;;;;4998106;28;20610;-53
2021/04/23 04:38:54;;;;;;;7.55;6.85;;;36.00;71.60;;;;;;4997238;28;20352;-55
2021/04/23 04:41:24;;;;;;;7.35;6.65;;;36.00;71.10;;;;;;4997171;28;20254;-55
2021/04/23 04:43:54;;;;;;;7.35;6.68;;;36.00;71.40;;;;;;4999529;28;20204;-50
2021/04/23 04:46:25;;;;;;;8.13;7.38;;;36.00;72.10;;;;;;4999009;28;20234;-53
2021/04/23 04:48:55;;;;;;;8.02;7.25;;;36.00;71.90;;;;;;4997099;28;20192;-55
2021/04/23 04:51:26;;;;;;;7.97;7.35;;;36.10;71.70;;;;;;4997885;28;20200;-54
2021/04/23 04:53:58;;;;;;;8.55;7.35;;;36.10;71.80;;;;;;4991095;28;20691;-54
2021/04/23 04:56:28;;;;;;;7.85;7.25;;;36.20;71.00;;;;;;4998775;28;20278;-54
2021/04/23 04:58:59;;;;;;;11.02;7.60;;;36.20;70.80;;;;;;4998645;28;20204;-55
2021/04/23 05:01:30;;;;;;;8.02;7.32;;;36.20;70.60;;;;;;4998903;28;20232;-53
2021/04/23 05:04:02;;;;;;;7.70;7.00;;;36.20;70.50;;;;;;4998325;28;20242;-52
2021/04/23 05:06:33;;;;;;;8.55;7.78;;;36.20;71.00;;;;;;4998133;28;20276;-50
2021/04/23 05:09:06;;;;;;;8.15;7.50;;;36.20;70.40;;;;;;4999079;28;20200;-54
2021/04/23 05:11:37;;;;;;;8.60;7.75;;;36.10;69.80;;;;;;4998601;28;20207;-54
2021/04/23 05:14:10;;;;;;;8.05;7.35;;;36.10;70.00;;;;;;4996795;28;20201;-54
2021/04/23 05:16:41;;;;;;;8.75;7.68;;;36.10;70.00;;;;;;4997983;28;20207;-54
2021/04/23 05:19:12;;;;;;;9.40;8.18;;;36.10;69.60;;;;;;4992821;28;20197;-54
2021/04/23 05:21:42;;;;;;;8.43;7.32;;;36.00;69.60;;;;;;4996597;28;20212;-50
2021/04/23 05:24:15;;;;;;;9.65;8.02;;;36.00;70.70;;;;;;4996996;28;20204;-50
2021/04/23 05:26:45;;;;;;;8.27;7.68;;;35.90;71.10;;;;;;4991980;28;20880;-49
2021/04/23 05:29:15;;;;;;;9.45;8.55;;;35.90;70.90;;;;;;4999188;28;20235;-49
2021/04/23 05:31:45;;;;;;;8.35;7.53;;;35.90;70.90;;;;;;4999122;28;20204;-52
2021/04/23 05:34:16;;;;;;;8.35;7.55;;;35.80;72.30;;;;;;4998131;28;20208;-51
2021/04/23 05:36:47;;;;;;;9.35;8.23;;;35.80;71.40;;;;;;4997832;28;20204;-53
2021/04/23 05:39:19;;;;;;;7.70;6.97;;;35.80;71.80;;;;;;4999170;28;20236;-52
2021/04/23 05:41:49;;;;;;;8.38;7.47;;;35.70;71.80;;;;;;4996670;28;20263;-53
2021/04/23 05:44:19;;;;;;;8.35;7.65;;;35.70;72.00;;;;;;4996909;28;20230;-50
2021/04/23 05:46:49;;;;;;;8.60;8.00;;;35.70;72.80;;;;;;4997121;28;21044;-50
2021/04/23 05:49:20;;;;;;;8.35;7.55;;;35.70;72.40;;;;;;4997516;28;20223;-48
2021/04/23 05:51:50;;;;;;;10.02;9.00;;;35.70;72.80;;;;;;4997852;28;20243;-49
2021/04/23 05:54:22;;;;;;;9.15;8.20;;;35.60;72.70;;;;;;4998439;28;20272;-49
2021/04/23 05:56:52;;;;;;;8.40;7.70;;;35.60;72.50;;;;;;4999047;28;20208;-50
2021/04/23 05:59:22;;;;;;;7.80;7.20;;;35.60;72.10;;;;;;5000049;28;20275;-53
2021/04/23 06:01:53;;;;;;;8.25;7.55;;;35.60;72.00;;;;;;4998988;28;20465;-54
2021/04/23 06:04:23;;;;;;;8.23;7.38;;;35.60;72.00;;;;;;4999933;28;20278;-52
2021/04/23 06:06:53;;;;;;;9.13;8.15;;;35.60;72.00;;;;;;4999119;28;20228;-53
2021/04/23 06:09:24;;;;;;;8.38;7.57;;;35.50;72.10;;;;;;4999615;28;20239;-54
2021/04/23 06:11:55;;;;;;;9.23;8.20;;;35.50;72.10;;;;;;4998689;28;20738;-51
2021/04/23 06:14:26;;;;;;;8.68;7.95;;;35.50;72.10;;;;;;4999137;28;20209;-53
2021/04/23 06:16:58;;;;;;;8.88;8.00;;;35.40;72.30;;;;;;4991838;28;20208;-53
2021/04/23 06:19:29;;;;;;;9.55;8.48;;;35.40;73.20;;;;;;4998240;28;20231;-54
2021/04/23 06:22:00;;;;;;;8.05;7.35;;;35.30;73.50;;;;;;4997875;28;20239;-51
2021/04/23 06:24:31;;;;;;;8.93;8.15;;;35.30;73.70;;;;;;4998732;28;20250;-51
2021/04/23 06:27:02;;;;;;;9.43;8.10;;;35.30;73.70;;;;;;4998336;28;20287;-52
2021/04/23 06:29:33;;;;;;;9.05;8.13;;;35.30;73.50;;;;;;4996571;28;20200;-51
2021/04/23 06:32:03;;;;;;;9.63;8.73;;;35.30;73.20;;;;;;4997675;28;20204;-53
2021/04/23 06:34:34;;;;;;;8.60;7.80;;;35.30;73.20;;;;;;4997966;28;20204;-51
2021/04/23 06:37:05;;;;;;;7.97;7.38;;;35.30;73.50;;;;;;4998491;28;20200;-49
2021/04/23 06:39:37;;;;;;;9.75;8.88;;;35.30;74.00;;;;;;4997716;28;20207;-53
2021/04/23 06:42:08;;;;;;;7.93;7.13;;;35.30;73.80;;;;;;4998060;28;20284;-53
2021/04/23 06:44:38;;;;;;;8.60;7.70;;;35.30;74.20;;;;;;4991842;28;20283;-53
2021/04/23 06:47:09;;;;;;;8.10;7.35;;;35.40;74.10;;;;;;4998146;28;20204;-52
2021/04/23 06:49:40;;;;;;;8.82;8.02;;;35.40;73.60;;;;;;4998169;28;20192;-52
2021/04/23 06:52:10;;;;;;;9.50;8.68;;;35.40;73.00;;;;;;4998368;28;20197;-53
2021/04/23 06:54:41;;;;;;;8.38;7.72;;;35.40;72.60;;;;;;4998450;28;20707;-54
2021/04/23 06:57:12;;;;;;;7.93;7.22;;;35.50;72.50;;;;;;4998745;28;20228;-54
2021/04/23 06:59:42;;;;;;;8.73;7.93;;;35.50;72.70;;;;;;5002030;28;20275;-54
2021/04/23 07:02:13;;;;;;;9.20;8.30;;;35.60;72.90;;;;;;5001681;28;20308;-53
2021/04/23 07:04:44;;;;;;;7.85;7.07;;;35.60;73.00;;;;;;5002354;28;20216;-53
2021/04/23 07:07:14;;;;;;;8.13;7.43;;;35.70;72.60;;;;;;5002805;28;20243;-53
2021/04/23 07:09:46;;;;;;;8.48;7.78;;;35.80;72.20;;;;;;5002137;28;20239;-50
2021/04/23 07:12:16;;;;;;;7.18;6.68;;;35.80;71.00;;;;;;5001976;28;20271;-48
2021/04/23 07:14:47;;;;;;;6.85;6.25;;;35.90;71.00;;;;;;5002416;28;20204;-49
2021/04/23 07:17:17;;;;;;;7.47;6.80;;;36.00;71.20;;;;;;5002620;28;20637;-53
2021/04/23 07:19:49;;;;;;;13.90;12.60;;;36.10;72.00;;;;;;5003077;28;20200;-54
2021/04/23 07:22:19;;;;;;;13.93;12.73;;;36.10;72.00;;;;;;5001902;28;20212;-54
2021/04/23 07:24:50;;;;;;;46.33;41.88;;;36.30;72.50;;;;;;5001752;28;20200;-51
2021/04/23 07:27:21;;;;;;;13.02;11.82;;;36.40;72.40;;;;;;5000520;28;20210;-54
2021/04/23 07:29:51;;;;;;;8.38;7.57;;;36.50;70.50;;;;;;5002666;28;20464;-51
2021/04/23 07:32:22;;;;;;;8.43;7.72;;;36.60;70.40;;;;;;5002430;28;20196;-52
2021/04/23 07:34:53;;;;;;;8.13;7.15;;;36.70;70.50;;;;;;5002131;28;20204;-55
2021/04/23 07:37:23;;;;;;;56.20;50.65;;;36.80;70.00;;;;;;5000444;28;20217;-54
2021/04/23 07:39:55;;;;;;;72.95;65.93;;;36.80;70.80;;;;;;5002323;28;20292;-53
2021/04/23 07:42:25;;;;;;;34.92;31.80;;;36.90;71.20;;;;;;5002080;28;20208;-53
2021/04/23 07:44:56;;;;;;;18.83;17.02;;;37.00;70.90;;;;;;5001822;28;20193;-54
2021/04/23 07:47:26;;;;;;;39.45;35.88;;;37.00;72.00;;;;;;5000410;28;20239;-49
2021/04/23 07:49:57;;;;;;;21.95;20.05;;;37.10;71.10;;;;;;4999986;28;20252;-52
2021/04/23 07:52:28;;;;;;;40.22;36.63;;;37.20;70.40;;;;;;5001827;28;20292;-54
2021/04/23 07:55:02;;;;;;;88.32;79.80;;;37.30;69.70;;;;;;4998977;28;20252;-53
2021/04/23 07:57:34;;;;;;;52.05;47.22;;;37.30;69.70;;;;;;5000802;28;20230;-54
2021/04/23 08:00:05;;;;;;;12.57;10.05;;;37.40;69.40;;;;;;5001023;28;20653;-53
2021/04/23 08:02:36;;;;;;;7.93;7.13;;;37.40;67.90;;;;;;4998262;28;20260;-52
2021/04/23 08:05:07;;;;;;;8.27;7.57;;;37.40;67.90;;;;;;5001475;28;20220;-53
2021/04/23 08:07:58;;;;;;;8.32;7.53;;;37.30;67.70;;;;;;5000322;28;20648;-54
2021/04/23 08:10:29;;;;;;;7.75;7.05;;;37.20;67.70;;;;;;5000158;28;20200;-51
2021/04/23 08:13:00;;;;;;;7.45;6.85;;;37.10;67.60;;;;;;4996666;28;20185;-53
2021/04/23 08:15:31;;;;;;;8.02;7.30;;;37.00;67.90;;;;;;5000672;28;20204;-53
2021/04/23 08:18:01;;;;;;;9.05;8.13;;;36.90;68.40;;;;;;5001114;28;20220;-48
2021/04/23 08:20:32;;;;;;;14.55;13.02;;;36.90;68.50;;;;;;5000308;28;20284;-50
2021/04/23 08:23:03;;;;;;;75.72;68.80;;;36.70;68.90;;;;;;5001111;28;20326;-50
2021/04/23 08:25:35;;;;;;;24.45;22.33;;;36.60;69.40;;;;;;5000614;28;20564;-50
2021/04/23 08:28:06;;;;;;;18.45;16.85;;;36.60;69.30;;;;;;4999476;28;20208;-49
2021/04/23 08:30:36;;;;;;;18.13;16.35;;;36.60;69.40;;;;;;5000083;28;20274;-50
2021/04/23 08:33:07;;;;;;;78.82;71.88;;;36.60;69.70;;;;;;4999622;28;20189;-50
2021/04/23 08:35:38;;;;;;;44.78;40.72;;;36.60;70.50;;;;;;4956695;29;20242;-52
2021/04/23 08:38:08;;;;;;;12.32;11.20;;;36.60;70.40;;;;;;4958081;29;20197;-55
2021/04/23 08:40:40;;;;;;;8.45;7.65;;;36.60;69.80;;;;;;4958362;29;20194;-53
2021/04/23 08:43:10;;;;;;;7.43;6.82;;;36.50;69.00;;;;;;4958819;29;20722;-51
2021/04/23 08:45:41;;;;;;;7.88;7.05;;;36.50;69.00;;;;;;4958423;29;20244;-52
2021/04/23 08:48:12;;;;;;;6.70;6.20;;;36.40;69.40;;;;;;4959308;29;20233;-53
2021/04/23 08:50:42;;;;;;;7.07;6.47;;;36.30;69.60;;;;;;4957540;29;20217;-50
2021/04/23 08:53:13;;;;;;;10.93;9.95;;;36.20;69.80;;;;;;4957974;29;20200;-54
2021/04/23 08:55:45;;;;;;;9.05;8.20;;;36.20;70.40;;;;;;4958425;29;20205;-53
2021/04/23 08:58:15;;;;;;;7.45;6.85;;;36.20;70.70;;;;;;4958692;29;20217;-51
2021/04/23 09:00:46;;;;;;;7.20;6.53;;;36.10;70.80;;;;;;4989704;28;20272;-54
2021/04/23 09:03:19;;;;;;;6.82;6.32;;;36.10;70.90;;;;;;4999970;28;20764;-54
2021/04/23 09:06:10;;;;;;;7.85;7.10;;;36.10;71.10;;;;;;4998140;28;20193;-54
2021/04/23 09:09:04;;;;;;;7.43;6.70;;;36.10;71.60;;;;;;4997334;28;20251;-51
2021/04/23 09:11:37;;;;;;;10.68;9.65;;;36.00;71.40;;;;;;4998390;28;20215;-54
2021/04/23 09:14:11;;;;;;;20.88;17.77;;;36.00;71.40;;;;;;4998472;28;20199;-54
2021/04/23 09:16:55;;;;;;;12.05;10.82;;;36.00;71.60;;;;;;4997361;28;20196;-53
2021/04/23 09:19:28;;;;;;;10.40;8.75;;;36.00;71.80;;;;;;4999102;28;20192;-51
2021/04/23 09:21:59;;;;;;;12.18;10.32;;;35.90;71.90;;;;;;4997961;28;20604;-53
2021/04/23 09:24:31;;;;;;;10.57;9.27;;;35.90;72.30;;;;;;4998848;28;20208;-53
2021/04/23 09:27:11;;;;;;;14.05;12.68;;;35.90;72.60;;;;;;4997932;28;20636;-53
2021/04/23 09:29:42;;;;;;;15.55;13.98;;;35.90;73.00;;;;;;4997739;28;20196;-51
2021/04/23 09:32:13;;;;;;;11.98;10.77;;;35.80;73.10;;;;;;5003205;28;20204;-53
2021/04/23 09:34:54;;;;;;;8.70;7.97;;;35.80;73.50;;;;;;4999428;28;20202;-53
2021/04/23 09:37:25;;;;;;;6.95;6.28;;;35.80;73.80;;;;;;4999623;28;20203;-53
2021/04/23 09:40:06;;;;;;;6.43;5.93;;;35.80;73.60;;;;;;4998427;28;20540;-54
2021/04/23 09:42:49;;;;;;;6.88;6.32;;;35.80;73.10;;;;;;4957572;29;20241;-50
2021/04/23 09:45:20;;;;;;;7.13;6.53;;;35.80;73.10;;;;;;4958997;29;20719;-54
2021/04/23 09:47:51;;;;;;;10.85;9.75;;;35.80;73.10;;;;;;4957825;29;20240;-53
2021/04/23 09:50:21;;;;;;;13.40;10.52;;;35.70;73.10;;;;;;4956552;29;20221;-51
2021/04/23 09:52:52;;;;;;;12.52;11.18;;;35.70;73.00;;;;;;4958143;29;20217;-52
2021/04/23 09:55:25;;;;;;;15.90;13.50;;;35.70;72.90;;;;;;4952569;29;20740;-52
2021/04/23 09:57:57;;;;;;;13.93;12.45;;;35.60;72.90;;;;;;4958455;29;20249;-54
2021/04/23 10:00:29;;;;;;;24.75;22.38;;;35.60;73.00;;;;;;4957041;29;20201;-53
2021/04/23 10:03:00;;;;;;;42.25;38.30;;;35.60;72.90;;;;;;4956527;29;20320;-54
2021/04/23 10:05:31;;;;;;;21.33;19.25;;;35.50;72.80;;;;;;4957847;29;20204;-54
2021/04/23 10:08:02;;;;;;;10.95;9.88;;;35.50;72.90;;;;;;4995860;28;20216;-52
2021/04/23 10:10:33;;;;;;;8.63;7.93;;;35.50;72.80;;;;;;4998101;28;20637;-54
2021/04/23 10:13:06;;;;;;;7.78;7.13;;;35.40;72.80;;;;;;4997928;28;20235;-54
2021/04/23 10:15:37;;;;;;;6.45;5.97;;;35.40;72.80;;;;;;4996512;28;20683;-54
2021/04/23 10:18:08;;;;;;;7.65;6.93;;;35.40;72.80;;;;;;4998329;28;20245;-53
2021/04/23 10:20:40;;;;;;;7.07;6.38;;;35.30;73.10;;;;;;4997438;28;20200;-54
2021/04/23 10:23:11;;;;;;;6.68;6.18;;;35.30;73.20;;;;;;4996674;28;20315;-53
2021/04/23 10:25:41;;;;;;;6.40;5.80;;;35.30;73.50;;;;;;4998170;28;20208;-52
2021/04/23 10:28:14;;;;;;;6.60;6.00;;;35.20;73.50;;;;;;4998318;28;20231;-54
2021/04/23 10:30:45;;;;;;;5.95;5.45;;;35.20;73.50;;;;;;4997096;28;20203;-53
2021/04/23 10:33:15;;;;;;;9.95;6.15;;;35.20;73.50;;;;;;5000080;28;20227;-54
2021/04/23 10:35:46;;;;;;;6.45;5.85;;;35.20;73.50;;;;;;5000649;28;20739;-52
2021/04/23 10:38:18;;;;;;;7.68;5.95;;;35.10;73.50;;;;;;5001813;28;20275;-51
2021/04/23 10:40:54;;;;;;;6.90;6.30;;;35.10;73.50;;;;;;5002552;28;20196;-51
2021/04/23 10:43:33;;;;;;;6.35;5.85;;;35.10;73.70;;;;;;5000915;28;20219;-51
2021/04/23 10:46:09;;;;;;;6.47;5.88;;;35.10;73.80;;;;;;5002013;28;20208;-51
2021/04/23 10:48:39;;;;;;;6.57;6.05;;;35.00;73.60;;;;;;4995461;28;20244;-50
2021/04/23 10:51:11;;;;;;;6.97;6.38;;;35.00;73.70;;;;;;5001267;28;20204;-54
2021/04/23 10:53:45;;;;;;;6.00;5.50;;;35.00;73.90;;;;;;5000609;28;20849;-54
2021/04/23 10:56:26;;;;;;;6.85;6.25;;;34.90;73.90;;;;;;4999688;28;20554;-50
2021/04/23 10:58:59;;;;;;;6.55;5.90;;;34.90;74.20;;;;;;4995288;28;20543;-52
2021/04/23 11:01:36;;;;;;;6.82;6.20;;;34.80;74.10;;;;;;4999877;28;20224;-49
2021/04/23 11:04:11;;;;;;;7.00;6.40;;;34.80;74.30;;;;;;5000263;28;20258;-50
2021/04/23 11:06:43;;;;;;;8.13;7.32;;;34.80;74.50;;;;;;5000655;28;20203;-54
2021/04/23 11:09:18;;;;;;;8.40;7.45;;;34.70;74.40;;;;;;4995597;28;20243;-54
2021/04/23 11:12:12;;;;;;;8.93;8.02;;;34.70;74.50;;;;;;5000567;28;20239;-50
2021/04/23 11:14:44;;;;;;;9.40;8.23;;;34.70;74.90;;;;;;4992242;28;20688;-54
2021/04/23 11:17:35;;;;;;;9.07;8.13;;;34.70;74.90;;;;;;5000553;28;20239;-49
2021/04/23 11:20:24;;;;;;;8.50;7.60;;;34.60;75.20;;;;;;5000240;28;20208;-53
2021/04/23 11:22:56;;;;;;;8.18;7.38;;;34.50;75.30;;;;;;4999528;28;20219;-52
2021/04/23 11:25:27;;;;;;;7.88;7.18;;;34.50;75.20;;;;;;5000092;28;20204;-49
2021/04/23 11:28:14;;;;;;;7.10;6.30;;;34.50;75.40;;;;;;5000801;28;20200;-50
2021/04/23 11:31:12;;;;;;;7.30;6.45;;;34.40;75.70;;;;;;4999857;28;20282;-48
2021/04/23 11:33:52;;;;;;;5.93;5.43;;;34.40;76.50;;;;;;4966475;28;20215;-54
2021/04/23 11:36:30;;;;;;;5.90;5.40;;;34.30;75.80;;;;;;4999801;28;20715;-53
2021/04/23 11:39:08;;;;;;;5.80;5.30;;;34.30;75.80;;;;;;4997373;28;20562;-54
2021/04/23 11:41:38;;;;;;;5.78;5.38;;;34.30;75.90;;;;;;4999439;28;20257;-55
2021/04/23 11:44:43;;;;;;;6.82;5.93;;;34.20;76.00;;;;;;4999435;28;20287;-53
2021/04/23 11:47:15;;;;;;;6.35;5.75;;;34.20;76.40;;;;;;4958215;28;20231;-53
2021/04/23 11:49:46;;;;;;;5.85;5.35;;;34.20;76.30;;;;;;4997525;28;20224;-52
2021/04/23 11:52:17;;;;;;;6.38;5.88;;;34.10;77.30;;;;;;4998938;28;20219;-53
2021/04/23 11:54:47;;;;;;;6.97;6.38;;;34.10;76.60;;;;;;4999161;28;20192;-53
2021/04/23 11:57:17;;;;;;;6.28;5.65;;;34.00;76.90;;;;;;4998668;28;20224;-54
2021/04/23 12:00:02;;;;;;;6.00;5.40;;;34.00;77.10;;;;;;4998034;28;20235;-51
2021/04/23 12:02:44;;;;;;;7.30;6.70;;;34.00;77.60;;;;;;4996933;28;20288;-54
2021/04/23 12:05:35;;;;;;;6.85;6.25;;;33.90;77.80;;;;;;4997987;28;20193;-53
2021/04/23 12:08:07;;;;;;;7.13;6.43;;;33.90;77.90;;;;;;4997998;28;20208;-54
2021/04/23 12:10:38;;;;;;;9.68;8.77;;;33.80;77.60;;;;;;4997431;28;20197;-55
2021/04/23 12:13:10;;;;;;;9.27;8.48;;;33.80;78.00;;;;;;4997605;28;20287;-53
2021/04/23 12:15:40;;;;;;;8.00;7.30;;;33.70;78.20;;;;;;4997409;28;20189;-51
2021/04/23 12:18:12;;;;;;;8.40;7.60;;;33.70;78.40;;;;;;4996497;28;20196;-56
2021/04/23 12:20:43;;;;;;;8.70;7.90;;;33.70;78.80;;;;;;4998627;28;20235;-56
2021/04/23 12:23:15;;;;;;;10.55;9.55;;;33.60;78.70;;;;;;4998644;28;20287;-55
2021/04/23 12:25:46;;;;;;;11.25;9.93;;;33.60;78.90;;;;;;4998462;28;20237;-56
2021/04/23 12:28:21;;;;;;;11.40;10.30;;;33.60;79.10;;;;;;4997925;28;20207;-55
2021/04/23 12:30:53;;;;;;;9.68;8.68;;;33.60;79.20;;;;;;4998413;28;20204;-56
2021/04/23 12:33:25;;;;;;;9.65;8.13;;;33.50;79.20;;;;;;4998657;28;20208;-54
2021/04/23 12:35:55;;;;;;;7.80;7.03;;;33.50;79.30;;;;;;4957575;29;20213;-55
2021/04/23 12:38:38;;;;;;;6.70;6.13;;;33.50;79.40;;;;;;4955485;29;20220;-55
2021/04/23 12:41:19;;;;;;;6.68;6.13;;;33.50;79.80;;;;;;4957135;29;20228;-54
2021/04/23 12:43:49;;;;;;;6.85;6.25;;;33.50;79.80;;;;;;4957401;29;20225;-56
2021/04/23 12:46:38;;;;;;;6.80;6.20;;;33.50;79.50;;;;;;4957311;29;20221;-53
2021/04/23 12:49:12;;;;;;;6.47;5.93;;;33.50;80.00;;;;;;4956698;29;20214;-54
2021/04/23 12:51:44;;;;;;;6.32;5.63;;;33.40;79.70;;;;;;4951200;29;20316;-54
2021/04/23 12:54:14;;;;;;;6.28;5.47;;;33.40;79.90;;;;;;4955933;29;20229;-54
2021/04/23 12:56:51;;;;;;;7.13;6.50;;;33.40;79.90;;;;;;4955171;28;20209;-56
2021/04/23 12:59:38;;;;;;;6.68;6.10;;;33.40;80.20;;;;;;4954885;29;20205;-55
2021/04/23 13:02:08;;;;;;;6.43;5.93;;;33.40;80.40;;;;;;4917704;29;20254;-55
2021/04/23 13:04:39;;;;;;;7.18;6.47;;;33.30;80.10;;;;;;4917198;29;20273;-53
2021/04/23 13:07:14;;;;;;;6.65;6.15;;;33.40;80.30;;;;;;4949668;28;20213;-54
2021/04/23 13:09:44;;;;;;;6.95;6.35;;;33.30;80.40;;;;;;4972512;28;20200;-52